createdAt,value
2018-03-18T00:01:18.664Z,59.67
2018-03-18T00:04:21.203Z,60.28
2018-03-18T00:07:23.689Z,59.37
2018-03-18T00:10:26.168Z,61.04
2018-03-18T00:13:28.712Z,60.08
2018-03-18T00:16:31.253Z,59.64
2018-03-18T00:19:33.759Z,59.03
2018-03-18T00:22:36.275Z,59.88
2018-03-18T00:25:38.835Z,60.41
2018-03-18T00:28:41.339Z,59.76
2018-03-18T00:31:43.905Z,61.18
2018-03-18T00:34:46.368Z,61.47
2018-03-18T00:37:48.885Z,61.11
2018-03-18T00:40:51.410Z,60.59
2018-03-18T00:43:53.859Z,59.66
2018-03-18T00:46:56.310Z,60.93
2018-03-18T00:49:58.823Z,60.66
2018-03-18T00:53:01.303Z,59.99
2018-03-18T00:56:03.771Z,60.25
2018-03-18T00:59:06.520Z,59.75
2018-03-18T01:02:08.998Z,60.05
2018-03-18T01:05:11.450Z,59.80
2018-03-18T01:08:13.944Z,60.14
2018-03-18T01:11:16.434Z,60.60
2018-03-18T01:14:19.011Z,61.27
2018-03-18T01:17:21.514Z,59.44
2018-03-18T01:20:24.040Z,60.82
2018-03-18T01:23:26.513Z,59.02
2018-03-18T01:26:28.941Z,59.49
2018-03-18T01:29:31.454Z,59.53
2018-03-18T01:32:33.949Z,60.25
2018-03-18T01:35:36.410Z,60.18
2018-03-18T01:38:38.895Z,59.63
2018-03-18T01:41:41.481Z,60.52
2018-03-18T01:44:43.957Z,59.24
2018-03-18T01:47:46.470Z,59.57
2018-03-18T01:50:48.959Z,59.80
2018-03-18T01:53:51.416Z,59.47
2018-03-18T01:56:53.926Z,60.11
2018-03-18T01:59:56.406Z,60.30
2018-03-18T02:02:58.950Z,59.60
2018-03-18T02:06:01.461Z,59.73
2018-03-18T02:09:04.025Z,60.34
2018-03-18T02:12:06.456Z,60.89
2018-03-18T02:15:08.953Z,61.00
2018-03-18T02:18:11.420Z,60.57
2018-03-18T02:21:13.980Z,59.31
2018-03-18T02:24:16.534Z,59.89
2018-03-18T02:27:19.049Z,60.56
2018-03-18T02:30:21.539Z,59.96
2018-03-18T02:33:23.977Z,58.63
2018-03-18T02:36:26.476Z,60.92
2018-03-18T02:39:28.916Z,60.66
2018-03-18T02:42:31.431Z,61.18
2018-03-18T02:45:33.924Z,60.88
2018-03-18T02:48:36.491Z,59.77
2018-03-18T02:51:39.026Z,61.15
2018-03-18T02:54:41.553Z,61.06
2018-03-18T02:57:44.123Z,61.45
2018-03-18T03:00:46.572Z,60.96
2018-03-18T03:03:49.062Z,61.44
2018-03-18T03:06:51.490Z,60.38
2018-03-18T03:09:53.984Z,60.25
2018-03-18T03:12:56.520Z,61.53
2018-03-18T03:15:58.998Z,60.99
2018-03-18T03:19:01.477Z,60.57
2018-03-18T03:22:04.106Z,61.99
2018-03-18T03:25:06.666Z,60.88
2018-03-18T03:28:09.121Z,60.64
2018-03-18T03:31:11.620Z,61.31
2018-03-18T03:34:14.069Z,62.59
2018-03-18T03:37:16.576Z,61.96
2018-03-18T03:40:19.066Z,60.99
2018-03-18T03:43:21.550Z,61.27
2018-03-18T03:46:24.116Z,62.32
2018-03-18T03:49:26.591Z,61.34
2018-03-18T03:52:29.118Z,61.67
2018-03-18T03:55:31.599Z,61.83
2018-03-18T03:58:34.041Z,61.78
2018-03-18T04:01:36.608Z,61.97
2018-03-18T04:04:39.063Z,62.46
2018-03-18T04:07:41.568Z,62.37
2018-03-18T04:10:44.051Z,61.55
2018-03-18T04:13:46.487Z,61.37
2018-03-18T04:16:49.048Z,62.81
2018-03-18T04:19:51.478Z,62.26
2018-03-18T04:22:53.961Z,61.67
2018-03-18T04:25:56.398Z,63.11
2018-03-18T04:28:58.868Z,62.39
2018-03-18T04:32:01.319Z,62.40
2018-03-18T04:35:03.795Z,62.42
2018-03-18T04:38:06.336Z,62.19
2018-03-18T04:41:08.852Z,61.79
2018-03-18T04:44:11.334Z,63.61
2018-03-18T04:47:13.813Z,63.39
2018-03-18T04:50:16.292Z,62.88
2018-03-18T04:53:18.766Z,62.33
2018-03-18T04:56:21.246Z,61.77
2018-03-18T04:59:23.698Z,62.32
2018-03-18T05:02:26.222Z,63.05
2018-03-18T05:05:28.709Z,63.64
2018-03-18T05:08:31.211Z,62.27
2018-03-18T05:11:33.674Z,62.08
2018-03-18T05:14:36.274Z,63.08
2018-03-18T05:17:38.723Z,62.25
2018-03-18T05:20:41.200Z,62.80
2018-03-18T05:23:43.752Z,62.65
2018-03-18T05:26:46.222Z,61.54
2018-03-18T05:29:48.737Z,61.92
2018-03-18T05:32:51.244Z,63.11
2018-03-18T05:35:53.803Z,61.62
2018-03-18T05:38:56.233Z,62.37
2018-03-18T05:41:58.699Z,62.10
2018-03-18T05:45:01.205Z,61.85
2018-03-18T05:48:03.704Z,62.90
2018-03-18T05:51:06.154Z,61.60
2018-03-18T05:54:08.618Z,60.87
2018-03-18T05:57:11.230Z,61.24
2018-03-18T06:00:13.753Z,60.67
2018-03-18T06:03:16.214Z,61.45
2018-03-18T06:06:18.718Z,61.92
2018-03-18T06:09:21.173Z,60.43
2018-03-18T06:12:23.734Z,59.81
2018-03-18T06:15:26.248Z,61.18
2018-03-18T06:18:28.693Z,60.83
2018-03-18T06:21:31.168Z,61.18
2018-03-18T06:24:33.677Z,59.25
2018-03-18T06:27:36.141Z,59.86
2018-03-18T06:30:38.598Z,60.20
2018-03-18T06:33:41.173Z,59.24
2018-03-18T06:36:43.660Z,60.13
2018-03-18T06:39:46.124Z,60.43
2018-03-18T06:42:48.595Z,60.11
2018-03-18T06:45:51.043Z,60.05
2018-03-18T06:48:53.575Z,58.58
2018-03-18T06:51:56.034Z,58.67
2018-03-18T06:54:58.589Z,59.09
2018-03-18T06:58:01.149Z,58.99
2018-03-18T07:01:03.615Z,59.40
2018-03-18T07:04:06.193Z,58.31
2018-03-18T07:07:08.740Z,57.74
2018-03-18T07:10:11.228Z,59.86
2018-03-18T07:13:13.773Z,58.99
2018-03-18T07:16:16.268Z,57.31
2018-03-18T07:19:18.769Z,57.07
2018-03-18T07:22:21.369Z,56.63
2018-03-18T07:25:23.864Z,57.16
2018-03-18T07:28:26.329Z,57.11
2018-03-18T07:31:28.813Z,56.48
2018-03-18T07:34:31.321Z,56.19
2018-03-18T07:37:33.886Z,56.30
2018-03-18T07:40:36.375Z,57.00
2018-03-18T07:43:38.804Z,55.85
2018-03-18T07:46:41.327Z,56.18
2018-03-18T07:49:43.794Z,54.13
2018-03-18T07:52:46.295Z,54.55
2018-03-18T07:55:48.819Z,55.04
2018-03-18T07:58:51.324Z,53.64
2018-03-18T08:01:54.776Z,56.01
2018-03-18T08:04:57.311Z,54.42
2018-03-18T08:07:59.891Z,55.65
2018-03-18T08:11:02.459Z,56.18
2018-03-18T08:14:05.071Z,56.39
2018-03-18T08:17:07.521Z,55.72
2018-03-18T08:20:09.981Z,54.78
2018-03-18T08:23:12.456Z,56.11
2018-03-18T08:26:14.901Z,54.77
2018-03-18T08:29:18.139Z,55.74
2018-03-18T08:32:20.597Z,56.84
2018-03-18T08:35:23.074Z,56.18
2018-03-18T08:38:25.582Z,55.90
2018-03-18T08:41:28.136Z,57.11
2018-03-18T08:44:30.644Z,53.89
2018-03-18T08:47:33.220Z,54.36
2018-03-18T08:50:35.769Z,56.28
2018-03-18T08:53:38.370Z,53.85
2018-03-18T08:56:40.856Z,55.84
2018-03-18T08:59:43.385Z,53.88
2018-03-18T09:02:45.929Z,54.41
2018-03-18T09:05:48.486Z,54.47
2018-03-18T09:08:51.092Z,53.99
2018-03-18T09:11:53.719Z,54.42
2018-03-18T09:14:56.270Z,55.21
2018-03-18T09:17:58.719Z,52.27
2018-03-18T09:21:01.186Z,53.92
2018-03-18T09:24:03.652Z,54.27
2018-03-18T09:27:06.116Z,54.39
2018-03-18T09:30:08.606Z,54.43
2018-03-18T09:33:11.045Z,52.94
2018-03-18T09:36:13.540Z,51.52
2018-03-18T09:39:16.047Z,53.18
2018-03-18T09:42:18.576Z,51.08
2018-03-18T09:45:21.030Z,51.18
2018-03-18T09:48:23.524Z,51.84
2018-03-18T09:51:25.971Z,51.95
2018-03-18T09:54:28.480Z,51.01
2018-03-18T09:57:31.013Z,49.99
2018-03-18T10:00:33.472Z,51.07
2018-03-18T10:03:36.071Z,51.04
2018-03-18T10:06:38.588Z,48.37
2018-03-18T10:09:41.073Z,48.93
2018-03-18T10:12:43.639Z,50.96
2018-03-18T10:15:46.214Z,50.83
2018-03-18T10:18:48.708Z,49.53
2018-03-18T10:21:51.227Z,49.32
2018-03-18T10:24:53.708Z,48.75
2018-03-18T10:27:56.193Z,47.09
2018-03-18T10:30:58.746Z,47.64
2018-03-18T10:34:01.239Z,49.65
2018-03-18T10:37:03.695Z,48.02
2018-03-18T10:40:06.295Z,47.18
2018-03-18T10:43:08.730Z,47.05
2018-03-18T10:46:11.213Z,50.13
2018-03-18T10:49:13.727Z,49.08
2018-03-18T10:52:16.236Z,49.18
2018-03-18T10:55:18.807Z,48.84
2018-03-18T10:58:21.323Z,51.68
2018-03-18T11:01:29.482Z,49.47
2018-03-18T11:04:32.017Z,47.35
2018-03-18T11:07:34.493Z,49.15
2018-03-18T11:10:37.052Z,50.90
2018-03-18T11:13:39.687Z,52.07
2018-03-18T11:16:42.263Z,45.79
2018-03-18T11:19:44.832Z,45.68
2018-03-18T11:22:47.388Z,47.05
2018-03-18T11:25:49.968Z,45.93
2018-03-18T11:28:52.444Z,46.41
2018-03-18T11:31:54.981Z,48.29
2018-03-18T11:34:57.426Z,45.73
2018-03-18T11:38:00.007Z,46.92
2018-03-18T11:41:02.538Z,45.93
2018-03-18T11:44:05.226Z,48.58
2018-03-18T11:47:07.760Z,45.68
2018-03-18T11:50:10.298Z,46.86
2018-03-18T11:53:12.824Z,45.37
2018-03-18T11:56:15.387Z,47.05
2018-03-18T11:59:17.948Z,46.66
2018-03-18T12:02:20.514Z,46.02
2018-03-18T12:05:23.005Z,48.12
2018-03-18T12:08:37.213Z,48.63
2018-03-18T12:11:39.754Z,48.34
2018-03-18T12:14:42.317Z,47.84
2018-03-18T12:17:44.866Z,46.03
2018-03-18T12:20:47.443Z,46.05
2018-03-18T12:23:49.939Z,45.20
2018-03-18T12:26:52.479Z,46.22
2018-03-18T12:29:55.027Z,44.94
2018-03-18T12:32:57.613Z,44.67
2018-03-18T12:36:00.130Z,46.28
2018-03-18T12:39:02.617Z,46.29
2018-03-18T12:42:05.091Z,44.44
2018-03-18T12:45:07.614Z,46.72
2018-03-18T12:48:10.114Z,47.09
2018-03-18T12:51:12.637Z,42.69
2018-03-18T12:54:15.126Z,45.73
2018-03-18T12:57:17.696Z,43.93
2018-03-18T13:00:20.191Z,44.11
2018-03-18T13:03:22.819Z,43.13
2018-03-18T13:06:25.488Z,43.61
2018-03-18T13:09:28.028Z,43.70
2018-03-18T13:12:31.424Z,44.25
2018-03-18T13:15:33.990Z,44.15
2018-03-18T13:18:36.526Z,43.90
2018-03-18T13:21:39.021Z,45.22
2018-03-18T13:24:41.703Z,45.53
2018-03-18T13:27:44.119Z,45.03
2018-03-18T13:30:46.605Z,45.26
2018-03-18T13:33:49.074Z,43.16
2018-03-18T13:36:51.691Z,43.91
2018-03-18T13:39:54.181Z,44.81
2018-03-18T13:42:56.677Z,45.59
2018-03-18T13:45:59.207Z,46.09
2018-03-18T13:49:01.718Z,46.12
2018-03-18T13:52:04.233Z,45.02
2018-03-18T13:55:06.738Z,44.01
2018-03-18T13:58:09.233Z,43.98
2018-03-18T14:01:11.915Z,43.26
2018-03-18T14:04:14.463Z,45.35
2018-03-18T14:07:16.975Z,43.77
2018-03-18T14:10:19.514Z,43.83
2018-03-18T14:13:22.172Z,42.92
2018-03-18T14:16:24.679Z,44.19
2018-03-18T14:19:27.167Z,44.48
2018-03-18T14:22:29.754Z,43.48
2018-03-18T14:25:32.279Z,44.30
2018-03-18T14:28:34.881Z,44.20
2018-03-18T14:31:37.405Z,44.21
2018-03-18T14:34:39.941Z,44.03
2018-03-18T14:37:42.460Z,45.95
2018-03-18T14:40:45.025Z,45.69
2018-03-18T14:43:47.565Z,43.87
2018-03-18T14:46:50.156Z,42.41
2018-03-18T14:49:52.735Z,43.38
2018-03-18T14:52:55.327Z,44.69
2018-03-18T14:55:57.858Z,44.79
2018-03-18T14:59:00.344Z,44.96
2018-03-18T15:02:02.865Z,44.80
2018-03-18T15:05:05.385Z,43.76
2018-03-18T15:08:07.891Z,42.49
2018-03-18T15:11:10.426Z,45.00
2018-03-18T15:14:13.017Z,45.41
2018-03-18T15:17:15.574Z,43.92
2018-03-18T15:20:18.103Z,45.93
2018-03-18T15:23:20.711Z,46.53
2018-03-18T15:26:23.190Z,45.66
2018-03-18T15:29:25.694Z,45.25
2018-03-18T15:32:28.291Z,45.85
2018-03-18T15:35:30.790Z,44.22
2018-03-18T15:38:33.414Z,45.58
2018-03-18T15:41:35.890Z,42.81
2018-03-18T15:44:38.389Z,42.45
2018-03-18T15:47:40.863Z,40.91
2018-03-18T15:50:43.432Z,42.47
2018-03-18T15:53:45.950Z,42.66
2018-03-18T15:56:48.488Z,42.33
2018-03-18T15:59:51.022Z,43.78
2018-03-18T16:02:53.560Z,43.79
2018-03-18T16:05:56.168Z,41.84
2018-03-18T16:08:58.651Z,40.71
2018-03-18T16:12:01.151Z,42.86
2018-03-18T16:15:03.653Z,41.66
2018-03-18T16:18:06.141Z,44.74
2018-03-18T16:21:08.680Z,44.19
2018-03-18T16:24:11.214Z,45.28
2018-03-18T16:27:13.771Z,42.63
2018-03-18T16:30:28.148Z,44.09
2018-03-18T16:33:30.677Z,44.13
2018-03-18T16:36:33.178Z,41.84
2018-03-18T16:39:35.740Z,44.02
2018-03-18T16:42:38.251Z,43.17
2018-03-18T16:45:40.786Z,43.67
2018-03-18T16:48:43.517Z,43.03
2018-03-18T16:51:46.036Z,43.51
2018-03-18T16:54:48.535Z,44.22
2018-03-18T16:57:51.053Z,43.33
2018-03-18T17:00:53.524Z,43.01
2018-03-18T17:03:56.122Z,44.45
2018-03-18T17:06:58.619Z,43.15
2018-03-18T17:10:01.141Z,42.38
2018-03-18T17:13:03.730Z,42.74
2018-03-18T17:16:06.251Z,42.78
2018-03-18T17:19:08.723Z,45.28
2018-03-18T17:22:11.260Z,43.20
2018-03-18T17:25:13.795Z,41.52
2018-03-18T17:28:16.319Z,40.86
2018-03-18T17:31:18.877Z,41.88
2018-03-18T17:34:21.442Z,43.41
2018-03-18T17:37:23.904Z,44.16
2018-03-18T17:40:26.437Z,42.68
2018-03-18T17:43:28.927Z,42.22
2018-03-18T17:46:43.266Z,44.00
2018-03-18T17:49:57.796Z,43.03
2018-03-18T17:53:12.338Z,45.19
2018-03-18T17:56:26.663Z,42.85
2018-03-18T17:59:29.182Z,41.78
2018-03-18T18:02:31.716Z,43.03
2018-03-18T18:05:34.348Z,42.57
2018-03-18T18:08:36.869Z,42.66
2018-03-18T18:11:39.404Z,45.28
2018-03-18T18:14:42.013Z,42.65
2018-03-18T18:17:44.602Z,43.19
2018-03-18T18:20:47.171Z,42.58
2018-03-18T18:23:49.790Z,42.77
2018-03-18T18:26:52.396Z,44.00
2018-03-18T18:29:54.971Z,43.79
2018-03-18T18:32:57.444Z,43.82
2018-03-18T18:35:59.988Z,42.58
2018-03-18T18:39:02.532Z,42.89
2018-03-18T18:42:05.083Z,43.33
2018-03-18T18:45:07.667Z,43.25
2018-03-18T18:48:10.168Z,43.32
2018-03-18T18:51:12.688Z,43.00
2018-03-18T18:54:15.206Z,44.17
2018-03-18T18:57:17.821Z,44.12
2018-03-18T19:00:20.401Z,42.74
2018-03-18T19:03:22.876Z,45.08
2018-03-18T19:06:25.446Z,41.84
2018-03-18T19:09:27.882Z,43.27
2018-03-18T19:12:30.374Z,44.54
2018-03-18T19:15:32.888Z,45.56
2018-03-18T19:18:35.404Z,44.38
2018-03-18T19:21:37.930Z,43.26
2018-03-18T19:24:40.405Z,45.38
2018-03-18T19:27:42.969Z,44.54
2018-03-18T19:30:45.493Z,45.61
2018-03-18T19:33:48.037Z,44.68
2018-03-18T19:36:50.526Z,43.40
2018-03-18T19:39:53.062Z,43.79
2018-03-18T19:42:55.583Z,43.78
2018-03-18T19:45:58.070Z,45.86
2018-03-18T19:49:00.668Z,45.38
2018-03-18T19:52:03.236Z,46.19
2018-03-18T19:55:05.912Z,46.73
2018-03-18T19:58:08.420Z,46.68
2018-03-18T20:01:10.939Z,46.81
2018-03-18T20:04:13.477Z,47.81
2018-03-18T20:07:16.054Z,46.76
2018-03-18T20:10:18.611Z,46.61
2018-03-18T20:13:21.221Z,47.67
2018-03-18T20:16:23.699Z,47.15
2018-03-18T20:19:26.303Z,47.22
2018-03-18T20:22:28.939Z,46.52
2018-03-18T20:25:31.402Z,48.08
2018-03-18T20:28:33.989Z,47.15
2018-03-18T20:31:36.510Z,47.58
2018-03-18T20:34:39.060Z,49.01
2018-03-18T20:37:41.608Z,48.66
2018-03-18T20:40:44.131Z,49.47
2018-03-18T20:43:46.604Z,50.53
2018-03-18T20:46:49.158Z,49.37
2018-03-18T20:49:51.748Z,49.95
2018-03-18T20:52:54.276Z,50.19
2018-03-18T20:55:56.851Z,49.78
2018-03-18T20:58:59.454Z,47.31
2018-03-18T21:02:01.939Z,47.76
2018-03-18T21:05:04.474Z,48.31
2018-03-18T21:08:07.041Z,46.02
2018-03-18T21:11:09.585Z,46.86
2018-03-18T21:14:12.108Z,46.19
2018-03-18T21:17:14.688Z,46.27
2018-03-18T21:20:17.197Z,46.91
2018-03-18T21:23:19.807Z,46.15
2018-03-18T21:26:22.335Z,46.94
2018-03-18T21:29:24.831Z,49.25
2018-03-18T21:32:27.491Z,48.43
2018-03-18T21:35:30.009Z,46.29
2018-03-18T21:38:32.549Z,46.67
2018-03-18T21:41:35.015Z,47.36
2018-03-18T21:44:37.528Z,46.63
2018-03-18T21:47:40.005Z,47.33
2018-03-18T21:50:42.512Z,47.67
2018-03-18T21:53:45.103Z,45.99
2018-03-18T21:56:47.626Z,47.08
2018-03-18T21:59:50.205Z,46.51
2018-03-18T22:02:52.746Z,45.55
2018-03-18T22:05:55.261Z,46.41
2018-03-18T22:08:57.806Z,47.17
2018-03-18T22:12:00.402Z,47.60
2018-03-18T22:15:03.107Z,47.44
2018-03-18T22:18:05.555Z,45.72
2018-03-18T22:21:08.046Z,47.46
2018-03-18T22:24:10.549Z,48.76
2018-03-18T22:27:13.115Z,47.33
2018-03-18T22:30:15.591Z,48.06
2018-03-18T22:33:18.134Z,47.29
2018-03-18T22:36:20.701Z,47.57
2018-03-18T22:39:23.142Z,49.37
2018-03-18T22:42:25.706Z,48.86
2018-03-18T22:45:28.160Z,47.71
2018-03-18T22:48:30.621Z,48.57
2018-03-18T22:51:33.091Z,47.79
2018-03-18T22:54:35.610Z,48.15
2018-03-18T22:57:38.176Z,48.24
2018-03-18T23:00:40.658Z,47.96
2018-03-18T23:03:43.255Z,50.46
2018-03-18T23:06:45.685Z,49.53
2018-03-18T23:09:48.169Z,50.17
2018-03-18T23:12:50.626Z,49.19
2018-03-18T23:15:53.201Z,49.81
2018-03-18T23:18:55.656Z,50.46
2018-03-18T23:21:58.156Z,49.95
2018-03-18T23:25:00.620Z,50.30
2018-03-18T23:28:03.097Z,51.94
2018-03-18T23:31:05.550Z,50.85
2018-03-18T23:34:08.066Z,50.69
2018-03-18T23:37:10.518Z,50.40
2018-03-18T23:40:13.088Z,50.98
2018-03-18T23:43:15.646Z,51.17
2018-03-18T23:46:18.121Z,50.40
2018-03-18T23:49:20.670Z,51.95
2018-03-18T23:52:23.172Z,51.21
2018-03-18T23:55:25.633Z,51.43
2018-03-18T23:58:28.160Z,52.93
